sensor_id;sensor_type;location;lat;lon;timestamp;pressure;altitude;pressure_sealevel;temperature;humidity
73267;BME280;61495;53.400;7.608;2022-08-05T00:00:26;101589.56;;;18.40;67.94
73267;BME280;61495;53.400;7.608;2022-08-05T00:02:51;101598.63;;;18.46;68.11
73267;BME280;61495;53.400;7.608;2022-08-05T00:05:17;101592.28;;;18.40;71.21
73267;BME280;61495;53.400;7.608;2022-08-05T00:07:42;101596.50;;;18.48;68.51
73267;BME280;61495;53.400;7.608;2022-08-05T00:10:07;101588.25;;;18.43;68.65
73267;BME280;61495;53.400;7.608;2022-08-05T00:12:33;101574.13;;;18.41;68.99
73267;BME280;61495;53.400;7.608;2022-08-05T00:14:58;101563.25;;;18.41;68.24
73267;BME280;61495;53.400;7.608;2022-08-05T00:17:24;101547.03;;;18.29;69.09
73267;BME280;61495;53.400;7.608;2022-08-05T00:19:49;101578.38;;;18.37;68.08
73267;BME280;61495;53.400;7.608;2022-08-05T00:22:14;101583.78;;;18.37;68.98
73267;BME280;61495;53.400;7.608;2022-08-05T00:24:40;101573.91;;;18.30;68.94
73267;BME280;61495;53.400;7.608;2022-08-05T00:27:05;101580.72;;;18.33;67.99
73267;BME280;61495;53.400;7.608;2022-08-05T00:29:31;101579.09;;;18.32;68.05
73267;BME280;61495;53.400;7.608;2022-08-05T00:31:56;101563.53;;;18.27;68.29
73267;BME280;61495;53.400;7.608;2022-08-05T00:34:22;101570.13;;;18.31;67.79
73267;BME280;61495;53.400;7.608;2022-08-05T00:36:48;101565.19;;;18.28;69.33
73267;BME280;61495;53.400;7.608;2022-08-05T00:39:14;101535.09;;;18.30;69.83
73267;BME280;61495;53.400;7.608;2022-08-05T00:41:44;101524.13;;;18.25;69.30
73267;BME280;61495;53.400;7.608;2022-08-05T00:44:10;101516.81;;;18.25;69.90
73267;BME280;61495;53.400;7.608;2022-08-05T00:46:35;101482.28;;;18.21;69.23
73267;BME280;61495;53.400;7.608;2022-08-05T00:49:00;101476.00;;;18.20;69.55
73267;BME280;61495;53.400;7.608;2022-08-05T00:51:26;101466.00;;;18.21;68.95
73267;BME280;61495;53.400;7.608;2022-08-05T00:53:51;101459.25;;;18.23;69.16
73267;BME280;61495;53.400;7.608;2022-08-05T00:56:17;101458.47;;;18.23;68.89
73267;BME280;61495;53.400;7.608;2022-08-05T00:58:42;101458.19;;;18.24;69.42
73267;BME280;61495;53.400;7.608;2022-08-05T01:01:09;101453.50;;;18.20;69.31
73267;BME280;61495;53.400;7.608;2022-08-05T01:03:36;101433.50;;;18.09;69.91
73267;BME280;61495;53.400;7.608;2022-08-05T01:06:02;101438.34;;;18.07;70.36
73267;BME280;61495;53.400;7.608;2022-08-05T01:08:27;101450.59;;;18.10;69.53
73267;BME280;61495;53.400;7.608;2022-08-05T01:10:55;101454.13;;;18.10;70.48
73267;BME280;61495;53.400;7.608;2022-08-05T01:16:05;101464.53;;;18.02;69.49
73267;BME280;61495;53.400;7.608;2022-08-05T01:18:37;101458.19;;;17.96;69.37
73267;BME280;61495;53.400;7.608;2022-08-05T01:26:42;101485.88;;;17.98;69.60
73267;BME280;61495;53.400;7.608;2022-08-05T01:31:53;101486.59;;;17.94;70.62
73267;BME280;61495;53.400;7.608;2022-08-05T01:34:22;101480.84;;;17.90;70.45
73267;BME280;61495;53.400;7.608;2022-08-05T01:36:53;101491.56;;;17.85;71.67
73267;BME280;61495;53.400;7.608;2022-08-05T01:39:20;101519.75;;;17.84;71.01
73267;BME280;61495;53.400;7.608;2022-08-05T01:41:47;101528.56;;;17.91;71.01
73267;BME280;61495;53.400;7.608;2022-08-05T01:44:15;101522.47;;;17.84;70.64
73267;BME280;61495;53.400;7.608;2022-08-05T01:46:41;101515.38;;;17.83;70.63
73267;BME280;61495;53.400;7.608;2022-08-05T01:49:09;101509.38;;;17.81;70.65
73267;BME280;61495;53.400;7.608;2022-08-05T01:51:37;101493.94;;;17.82;70.64
73267;BME280;61495;53.400;7.608;2022-08-05T01:54:06;101506.19;;;17.84;71.10
73267;BME280;61495;53.400;7.608;2022-08-05T01:56:35;101510.44;;;17.80;70.72
73267;BME280;61495;53.400;7.608;2022-08-05T01:59:06;101539.19;;;17.81;71.66
73267;BME280;61495;53.400;7.608;2022-08-05T02:01:33;101543.06;;;17.85;71.64
73267;BME280;61495;53.400;7.608;2022-08-05T02:04:00;101533.19;;;17.79;71.35
73267;BME280;61495;53.400;7.608;2022-08-05T02:06:27;101533.78;;;17.81;71.00
73267;BME280;61495;53.400;7.608;2022-08-05T02:08:52;101528.09;;;17.83;71.67
73267;BME280;61495;53.400;7.608;2022-08-05T02:11:19;101552.28;;;17.84;71.41
73267;BME280;61495;53.400;7.608;2022-08-05T02:13:53;101543.53;;;17.82;71.45
73267;BME280;61495;53.400;7.608;2022-08-05T02:16:28;101554.53;;;17.87;71.49
73267;BME280;61495;53.400;7.608;2022-08-05T02:19:43;101533.88;;;17.86;71.43
73267;BME280;61495;53.400;7.608;2022-08-05T02:22:08;101522.56;;;17.89;71.30
73267;BME280;61495;53.400;7.608;2022-08-05T02:24:38;101520.22;;;17.81;71.64
73267;BME280;61495;53.400;7.608;2022-08-05T02:27:07;101539.31;;;17.86;71.70
73267;BME280;61495;53.400;7.608;2022-08-05T02:29:35;101542.59;;;17.88;71.94
73267;BME280;61495;53.400;7.608;2022-08-05T02:32:02;101527.75;;;17.79;71.58
73267;BME280;61495;53.400;7.608;2022-08-05T02:34:30;101525.53;;;17.76;72.01
73267;BME280;61495;53.400;7.608;2022-08-05T02:37:00;101538.84;;;17.89;72.05
73267;BME280;61495;53.400;7.608;2022-08-05T02:39:28;101526.22;;;17.83;72.39
73267;BME280;61495;53.400;7.608;2022-08-05T02:41:59;101521.75;;;17.77;72.21
73267;BME280;61495;53.400;7.608;2022-08-05T02:44:27;101527.75;;;17.79;71.83
73267;BME280;61495;53.400;7.608;2022-08-05T02:46:55;101521.53;;;17.79;72.12
73267;BME280;61495;53.400;7.608;2022-08-05T02:49:22;101536.81;;;17.85;72.44
73267;BME280;61495;53.400;7.608;2022-08-05T02:51:48;101544.25;;;17.89;72.55
73267;BME280;61495;53.400;7.608;2022-08-05T02:54:15;101527.75;;;17.79;72.75
73267;BME280;61495;53.400;7.608;2022-08-05T02:56:42;101514.94;;;17.74;72.13
73267;BME280;61495;53.400;7.608;2022-08-05T02:59:09;101527.63;;;17.86;72.30
73267;BME280;61495;53.400;7.608;2022-08-05T03:01:37;101510.09;;;17.76;72.54
73267;BME280;61495;53.400;7.608;2022-08-05T03:04:07;101533.06;;;17.86;72.89
73267;BME280;61495;53.400;7.608;2022-08-05T03:06:34;101536.03;;;17.84;72.42
73267;BME280;61495;53.400;7.608;2022-08-05T03:09:00;101546.13;;;17.89;72.90
73267;BME280;61495;53.400;7.608;2022-08-05T03:11:26;101534.38;;;17.83;72.65
73267;BME280;61495;53.400;7.608;2022-08-05T03:13:52;101544.25;;;17.89;72.43
73267;BME280;61495;53.400;7.608;2022-08-05T03:16:19;101523.41;;;17.78;72.38
73267;BME280;61495;53.400;7.608;2022-08-05T03:18:44;101542.59;;;17.88;72.73
73267;BME280;61495;53.400;7.608;2022-08-05T03:21:10;101539.78;;;17.83;72.91
73267;BME280;61495;53.400;7.608;2022-08-05T03:23:39;101541.44;;;17.84;72.72
73267;BME280;61495;53.400;7.608;2022-08-05T03:26:06;101527.06;;;17.72;72.62
73267;BME280;61495;53.400;7.608;2022-08-05T03:28:32;101539.69;;;17.78;72.78
73267;BME280;61495;53.400;7.608;2022-08-05T03:30:59;101548.50;;;17.85;72.71
73267;BME280;61495;53.400;7.608;2022-08-05T03:33:26;101535.31;;;17.77;73.09
73267;BME280;61495;53.400;7.608;2022-08-05T03:35:52;101557.72;;;17.84;73.24
73267;BME280;61495;53.400;7.608;2022-08-05T03:38:20;101559.81;;;17.82;72.86
73267;BME280;61495;53.400;7.608;2022-08-05T03:40:46;101546.97;;;17.77;72.67
73267;BME280;61495;53.400;7.608;2022-08-05T03:43:12;101551.09;;;17.80;73.53
73267;BME280;61495;53.400;7.608;2022-08-05T03:45:37;101555.47;;;17.81;72.94
73267;BME280;61495;53.400;7.608;2022-08-05T03:48:03;101551.22;;;17.73;73.20
73267;BME280;61495;53.400;7.608;2022-08-05T03:50:47;101558.66;;;17.78;73.42
73267;BME280;61495;53.400;7.608;2022-08-05T03:53:20;101569.03;;;17.81;72.87
73267;BME280;61495;53.400;7.608;2022-08-05T03:56:01;101545.44;;;17.70;72.85
73267;BME280;61495;53.400;7.608;2022-08-05T03:58:29;101558.19;;;17.81;73.41
73267;BME280;61495;53.400;7.608;2022-08-05T04:00:58;101536.72;;;17.68;73.30
73267;BME280;61495;53.400;7.608;2022-08-05T04:03:26;101532.97;;;17.69;73.58
73267;BME280;61495;53.400;7.608;2022-08-05T04:05:52;101549.34;;;17.74;73.45
73267;BME280;61495;53.400;7.608;2022-08-05T04:08:19;101536.72;;;17.68;73.04
73267;BME280;61495;53.400;7.608;2022-08-05T04:10:44;101548.28;;;17.75;73.30
73267;BME280;61495;53.400;7.608;2022-08-05T04:13:10;101551.00;;;17.75;73.48
73267;BME280;61495;53.400;7.608;2022-08-05T04:15:35;101545.78;;;17.73;73.25
73267;BME280;61495;53.400;7.608;2022-08-05T04:18:05;101556.16;;;17.76;73.21
73267;BME280;61495;53.400;7.608;2022-08-05T04:20:30;101540.50;;;17.67;73.55
73267;BME280;61495;53.400;7.608;2022-08-05T04:22:56;101539.06;;;17.64;73.30
73267;BME280;61495;53.400;7.608;2022-08-05T04:25:21;101551.00;;;17.75;73.42
73267;BME280;61495;53.400;7.608;2022-08-05T04:27:47;101546.63;;;17.74;73.56
73267;BME280;61495;53.400;7.608;2022-08-05T04:30:12;101537.31;;;17.70;73.94
73267;BME280;61495;53.400;7.608;2022-08-05T04:32:39;101528.00;;;17.66;73.67
73267;BME280;61495;53.400;7.608;2022-08-05T04:35:05;101520.47;;;17.68;73.58
73267;BME280;61495;53.400;7.608;2022-08-05T04:37:30;101519.88;;;17.66;73.88
73267;BME280;61495;53.400;7.608;2022-08-05T04:39:57;101533.66;;;17.76;74.25
73267;BME280;61495;53.400;7.608;2022-08-05T04:42:23;101528.13;;;17.71;74.40
73267;BME280;61495;53.400;7.608;2022-08-05T04:44:48;101507.28;;;17.60;73.73
73267;BME280;61495;53.400;7.608;2022-08-05T04:47:14;101521.03;;;17.70;73.98
73267;BME280;61495;53.400;7.608;2022-08-05T04:49:39;101517.19;;;17.66;73.96
73267;BME280;61495;53.400;7.608;2022-08-05T04:52:05;101519.41;;;17.69;73.66
73267;BME280;61495;53.400;7.608;2022-08-05T04:54:31;101530.72;;;17.66;74.27
73267;BME280;61495;53.400;7.608;2022-08-05T04:56:56;101532.03;;;17.63;74.98
73267;BME280;61495;53.400;7.608;2022-08-05T04:59:21;101534.59;;;17.70;74.07
73267;BME280;61495;53.400;7.608;2022-08-05T05:01:51;101534.75;;;17.63;74.30
73267;BME280;61495;53.400;7.608;2022-08-05T05:04:16;101545.31;;;17.65;74.61
73267;BME280;61495;53.400;7.608;2022-08-05T05:06:42;101555.81;;;17.73;73.97
73267;BME280;61495;53.400;7.608;2022-08-05T05:09:09;101545.69;;;17.68;74.86
73267;BME280;61495;53.400;7.608;2022-08-05T05:11:35;101531.56;;;17.66;73.92
73267;BME280;61495;53.400;7.608;2022-08-05T05:14:00;101542.63;;;17.65;75.20
73267;BME280;61495;53.400;7.608;2022-08-05T05:16:27;101545.91;;;17.67;73.83
73267;BME280;61495;53.400;7.608;2022-08-05T05:18:52;101551.81;;;17.64;74.46
73267;BME280;61495;53.400;7.608;2022-08-05T05:21:18;101549.69;;;17.66;74.20
73267;BME280;61495;53.400;7.608;2022-08-05T05:23:43;101542.25;;;17.61;73.95
73267;BME280;61495;53.400;7.608;2022-08-05T05:26:08;101568.78;;;17.71;74.30
73267;BME280;61495;53.400;7.608;2022-08-05T05:28:34;101527.31;;;17.59;74.27
73267;BME280;61495;53.400;7.608;2022-08-05T05:30:59;101535.41;;;17.70;74.42
73267;BME280;61495;53.400;7.608;2022-08-05T05:33:24;101527.66;;;17.62;74.38
73267;BME280;61495;53.400;7.608;2022-08-05T05:35:50;101549.22;;;17.69;74.67
73267;BME280;61495;53.400;7.608;2022-08-05T05:38:16;101536.47;;;17.58;74.79
73267;BME280;61495;53.400;7.608;2022-08-05T05:40:42;101568.19;;;17.69;74.75
73267;BME280;61495;53.400;7.608;2022-08-05T05:43:07;101556.28;;;17.70;74.41
73267;BME280;61495;53.400;7.608;2022-08-05T05:45:33;101538.97;;;17.59;74.46
73267;BME280;61495;53.400;7.608;2022-08-05T05:47:58;101563.59;;;17.81;73.82
73267;BME280;61495;53.400;7.608;2022-08-05T05:50:24;101557.25;;;17.75;74.80
73267;BME280;61495;53.400;7.608;2022-08-05T05:52:50;101551.09;;;17.68;74.77
73267;BME280;61495;53.400;7.608;2022-08-05T05:55:16;101564.75;;;17.85;74.53
73267;BME280;61495;53.400;7.608;2022-08-05T05:57:43;101563.72;;;17.86;74.84
73267;BME280;61495;53.400;7.608;2022-08-05T06:00:11;101557.72;;;17.84;74.90
73267;BME280;61495;53.400;7.608;2022-08-05T06:02:37;101541.91;;;17.81;74.74
73267;BME280;61495;53.400;7.608;2022-08-05T06:05:03;101534.00;;;17.80;74.27
73267;BME280;61495;53.400;7.608;2022-08-05T06:07:31;101557.56;;;17.91;74.35
73267;BME280;61495;53.400;7.608;2022-08-05T06:09:56;101561.72;;;17.93;74.21
73267;BME280;61495;53.400;7.608;2022-08-05T06:12:22;101549.69;;;17.89;74.00
73267;BME280;61495;53.400;7.608;2022-08-05T06:14:47;101546.97;;;17.89;74.15
73267;BME280;61495;53.400;7.608;2022-08-05T06:17:12;101541.78;;;17.99;73.72
73267;BME280;61495;53.400;7.608;2022-08-05T06:19:38;101524.53;;;17.94;74.05
73267;BME280;61495;53.400;7.608;2022-08-05T06:22:05;101546.00;;;18.07;73.94
73267;BME280;61495;53.400;7.608;2022-08-05T06:24:32;101552.81;;;18.09;73.72
73267;BME280;61495;53.400;7.608;2022-08-05T06:26:57;101550.13;;;18.09;73.35
73267;BME280;61495;53.400;7.608;2022-08-05T06:29:23;101535.97;;;18.07;74.04
73267;BME280;61495;53.400;7.608;2022-08-05T06:31:49;101556.91;;;18.23;73.67
73267;BME280;61495;53.400;7.608;2022-08-05T06:34:14;101542.78;;;18.21;73.34
73267;BME280;61495;53.400;7.608;2022-08-05T06:36:39;101559.41;;;18.25;73.45
73267;BME280;61495;53.400;7.608;2022-08-05T06:39:05;101558.44;;;18.31;73.45
73267;BME280;61495;53.400;7.608;2022-08-05T06:41:30;101555.25;;;18.34;73.14
73267;BME280;61495;53.400;7.608;2022-08-05T06:43:56;101552.88;;;18.38;73.12
73267;BME280;61495;53.400;7.608;2022-08-05T06:46:21;101562.09;;;18.37;73.11
73267;BME280;61495;53.400;7.608;2022-08-05T06:48:46;101563.25;;;18.41;72.93
73267;BME280;61495;53.400;7.608;2022-08-05T06:51:12;101556.09;;;18.35;73.37
73267;BME280;61495;53.400;7.608;2022-08-05T06:53:37;101564.91;;;18.42;73.51
73267;BME280;61495;53.400;7.608;2022-08-05T06:56:03;101584.81;;;18.47;74.06
73267;BME280;61495;53.400;7.608;2022-08-05T06:58:29;101569.84;;;18.45;73.11
73267;BME280;61495;53.400;7.608;2022-08-05T07:00:57;101577.06;;;18.51;73.08
73267;BME280;61495;53.400;7.608;2022-08-05T07:03:24;101570.56;;;18.52;74.24
73267;BME280;61495;53.400;7.608;2022-08-05T07:05:49;101575.63;;;18.48;73.53
73267;BME280;61495;53.400;7.608;2022-08-05T07:08:14;101573.75;;;18.49;72.31
73267;BME280;61495;53.400;7.608;2022-08-05T07:10:40;101564.56;;;18.50;72.20
73267;BME280;61495;53.400;7.608;2022-08-05T07:13:05;101575.94;;;18.63;72.21
73267;BME280;61495;53.400;7.608;2022-08-05T07:15:49;101580.31;;;18.64;73.13
73267;BME280;61495;53.400;7.608;2022-08-05T07:18:33;101584.03;;;18.75;72.64
73267;BME280;61495;53.400;7.608;2022-08-05T07:20:58;101582.09;;;18.87;72.27
73267;BME280;61495;53.400;7.608;2022-08-05T07:23:24;101575.13;;;18.91;73.04
73267;BME280;61495;53.400;7.608;2022-08-05T07:25:49;101591.78;;;19.11;74.05
73267;BME280;61495;53.400;7.608;2022-08-05T07:28:14;101588.50;;;19.09;72.02
73267;BME280;61495;53.400;7.608;2022-08-05T07:30:40;101580.44;;;19.14;71.93
73267;BME280;61495;53.400;7.608;2022-08-05T07:33:10;101605.81;;;19.36;73.19
73267;BME280;61495;53.400;7.608;2022-08-05T07:35:39;101579.72;;;19.35;71.81
73267;BME280;61495;53.400;7.608;2022-08-05T07:38:04;101604.19;;;19.52;70.94
73267;BME280;61495;53.400;7.608;2022-08-05T07:40:30;101609.56;;;19.64;70.95
73267;BME280;61495;53.400;7.608;2022-08-05T07:42:55;101595.97;;;19.64;70.63
73267;BME280;61495;53.400;7.608;2022-08-05T07:45:21;101598.59;;;19.75;69.86
73267;BME280;61495;53.400;7.608;2022-08-05T07:47:46;101625.03;;;19.96;69.62
73267;BME280;61495;53.400;7.608;2022-08-05T07:50:12;101611.19;;;19.98;69.64
73267;BME280;61495;53.400;7.608;2022-08-05T07:52:38;101614.34;;;20.12;69.07
73267;BME280;61495;53.400;7.608;2022-08-05T07:55:04;101618.38;;;20.26;68.65
73267;BME280;61495;53.400;7.608;2022-08-05T07:57:30;101604.66;;;20.37;68.33
73267;BME280;61495;53.400;7.608;2022-08-05T07:59:55;101632.81;;;20.70;67.29
73267;BME280;61495;53.400;7.608;2022-08-05T08:02:25;101631.44;;;20.89;67.51
73267;BME280;61495;53.400;7.608;2022-08-05T08:04:50;101610.56;;;20.99;66.93
73267;BME280;61495;53.400;7.608;2022-08-05T08:07:17;101612.84;;;21.08;66.24
73267;BME280;61495;53.400;7.608;2022-08-05T08:09:42;101625.84;;;21.27;65.72
73267;BME280;61495;53.400;7.608;2022-08-05T08:12:08;101617.56;;;21.44;66.49
73267;BME280;61495;53.400;7.608;2022-08-05T08:14:33;101607.88;;;21.58;66.21
73267;BME280;61495;53.400;7.608;2022-08-05T08:16:59;101615.38;;;21.78;65.94
73267;BME280;61495;53.400;7.608;2022-08-05T08:19:24;101600.69;;;21.84;65.58
73267;BME280;61495;53.400;7.608;2022-08-05T08:21:49;101607.59;;;21.91;65.10
73267;BME280;61495;53.400;7.608;2022-08-05T08:24:15;101614.97;;;21.96;63.68
73267;BME280;61495;53.400;7.608;2022-08-05T08:26:40;101613.41;;;22.05;63.74
73267;BME280;61495;53.400;7.608;2022-08-05T08:29:05;101613.47;;;22.15;63.28
73267;BME280;61495;53.400;7.608;2022-08-05T08:31:31;101606.38;;;22.14;63.50
73267;BME280;61495;53.400;7.608;2022-08-05T08:33:56;101614.25;;;22.10;62.22
73267;BME280;61495;53.400;7.608;2022-08-05T08:36:21;101613.75;;;22.19;62.37
73267;BME280;61495;53.400;7.608;2022-08-05T08:38:47;101616.78;;;22.27;62.75
73267;BME280;61495;53.400;7.608;2022-08-05T08:41:13;101617.38;;;22.34;62.68
73267;BME280;61495;53.400;7.608;2022-08-05T08:43:40;101613.03;;;22.38;63.10
73267;BME280;61495;53.400;7.608;2022-08-05T08:46:06;101616.63;;;22.44;62.91
73267;BME280;61495;53.400;7.608;2022-08-05T08:48:31;101622.91;;;22.44;62.40
73267;BME280;61495;53.400;7.608;2022-08-05T08:50:58;101627.31;;;22.50;61.95
73267;BME280;61495;53.400;7.608;2022-08-05T08:53:26;101616.38;;;22.50;62.31
73267;BME280;61495;53.400;7.608;2022-08-05T08:55:52;101631.69;;;22.56;62.00
73267;BME280;61495;53.400;7.608;2022-08-05T08:58:17;101612.00;;;22.54;61.94
73267;BME280;61495;53.400;7.608;2022-08-05T09:00:43;101609.84;;;22.56;61.37
73267;BME280;61495;53.400;7.608;2022-08-05T09:03:10;101617.53;;;22.64;61.20
73267;BME280;61495;53.400;7.608;2022-08-05T09:05:35;101594.00;;;22.63;60.49
73267;BME280;61495;53.400;7.608;2022-08-05T09:08:01;101583.06;;;22.58;60.87
73267;BME280;61495;53.400;7.608;2022-08-05T09:10:27;101600.09;;;22.71;60.40
73267;BME280;61495;53.400;7.608;2022-08-05T09:12:53;101604.75;;;22.80;60.97
73267;BME280;61495;53.400;7.608;2022-08-05T09:15:19;101596.31;;;22.92;60.69
73267;BME280;61495;53.400;7.608;2022-08-05T09:17:44;101597.41;;;22.96;59.72
73267;BME280;61495;53.400;7.608;2022-08-05T09:20:12;101612.47;;;23.08;59.45
73267;BME280;61495;53.400;7.608;2022-08-05T09:25:31;101605.09;;;23.09;58.49
73267;BME280;61495;53.400;7.608;2022-08-05T09:28:11;101613.31;;;23.24;58.72
73267;BME280;61495;53.400;7.608;2022-08-05T09:30:37;101616.59;;;23.31;59.73
73267;BME280;61495;53.400;7.608;2022-08-05T09:33:06;101601.81;;;23.32;59.01
73267;BME280;61495;53.400;7.608;2022-08-05T09:35:31;101613.63;;;23.48;59.27
73267;BME280;61495;53.400;7.608;2022-08-05T09:37:57;101618.53;;;23.56;59.56
73267;BME280;61495;53.400;7.608;2022-08-05T09:40:35;101619.66;;;23.60;58.71
73267;BME280;61495;53.400;7.608;2022-08-05T09:43:02;101618.00;;;23.69;59.37
73267;BME280;61495;53.400;7.608;2022-08-05T09:45:39;101600.50;;;23.60;58.49
73267;BME280;61495;53.400;7.608;2022-08-05T09:48:18;101619.06;;;23.73;59.03
73267;BME280;61495;53.400;7.608;2022-08-05T09:50:48;101620.47;;;23.75;58.89
73267;BME280;61495;53.400;7.608;2022-08-05T09:53:14;101598.84;;;23.64;59.23
73267;BME280;61495;53.400;7.608;2022-08-05T09:55:40;101602.97;;;23.66;59.65
73267;BME280;61495;53.400;7.608;2022-08-05T09:58:13;101631.94;;;23.77;59.20
73267;BME280;61495;53.400;7.608;2022-08-05T10:00:53;101623.47;;;23.69;58.82
73267;BME280;61495;53.400;7.608;2022-08-05T10:03:19;101599.13;;;23.62;59.58
73267;BME280;61495;53.400;7.608;2022-08-05T10:05:45;101608.97;;;23.63;58.92
73267;BME280;61495;53.400;7.608;2022-08-05T10:08:10;101617.16;;;23.58;58.31
73267;BME280;61495;53.400;7.608;2022-08-05T10:10:38;101616.63;;;23.41;57.96
73267;BME280;61495;53.400;7.608;2022-08-05T10:13:10;101618.81;;;23.39;58.88
73267;BME280;61495;53.400;7.608;2022-08-05T10:15:38;101619.84;;;23.28;58.43
73267;BME280;61495;53.400;7.608;2022-08-05T10:18:19;101639.28;;;23.32;58.19
73267;BME280;61495;53.400;7.608;2022-08-05T10:20:54;101647.22;;;23.23;58.39
73267;BME280;61495;53.400;7.608;2022-08-05T10:23:32;101645.56;;;23.12;58.74
73267;BME280;61495;53.400;7.608;2022-08-05T10:26:10;101649.38;;;23.01;58.33
73267;BME280;61495;53.400;7.608;2022-08-05T10:28:37;101651.22;;;22.90;59.11
73267;BME280;61495;53.400;7.608;2022-08-05T10:31:03;101656.69;;;22.80;59.66
73267;BME280;61495;53.400;7.608;2022-08-05T10:33:30;101662.53;;;22.57;59.89
73267;BME280;61495;53.400;7.608;2022-08-05T10:35:57;101655.31;;;22.31;60.15
73267;BME280;61495;53.400;7.608;2022-08-05T10:38:26;101669.25;;;22.29;60.15
73267;BME280;61495;53.400;7.608;2022-08-05T10:41:04;101665.88;;;22.12;60.84
73267;BME280;61495;53.400;7.608;2022-08-05T10:43:42;101671.81;;;22.04;60.95
73267;BME280;61495;53.400;7.608;2022-08-05T10:46:14;101668.44;;;21.92;61.49
73267;BME280;61495;53.400;7.608;2022-08-05T10:48:41;101665.16;;;21.90;62.35
73267;BME280;61495;53.400;7.608;2022-08-05T10:51:11;101665.91;;;21.85;62.30
73267;BME280;61495;53.400;7.608;2022-08-05T10:56:26;101650.84;;;21.78;63.34
73267;BME280;61495;53.400;7.608;2022-08-05T11:01:27;101648.72;;;21.85;66.47
73267;BME280;61495;53.400;7.608;2022-08-05T11:04:16;101649.28;;;21.87;65.66
73267;BME280;61495;53.400;7.608;2022-08-05T11:12:03;101667.63;;;22.33;64.69
73267;BME280;61495;53.400;7.608;2022-08-05T11:14:33;101667.16;;;22.51;63.97
73267;BME280;61495;53.400;7.608;2022-08-05T11:19:51;101671.75;;;22.93;62.97
73267;BME280;61495;53.400;7.608;2022-08-05T11:22:38;101670.69;;;23.04;63.01
73267;BME280;61495;53.400;7.608;2022-08-05T11:25:26;101680.63;;;23.40;63.48
73267;BME280;61495;53.400;7.608;2022-08-05T11:27:52;101680.38;;;23.47;62.65
73267;BME280;61495;53.400;7.608;2022-08-05T11:30:18;101687.22;;;23.64;61.80
73267;BME280;61495;53.400;7.608;2022-08-05T11:32:43;101686.69;;;23.62;58.87
73267;BME280;61495;53.400;7.608;2022-08-05T11:38:12;101677.94;;;23.96;60.29
73267;BME280;61495;53.400;7.608;2022-08-05T11:41:00;101710.78;;;24.16;57.98
73267;BME280;61495;53.400;7.608;2022-08-05T11:43:26;101709.16;;;24.15;58.02
73267;BME280;61495;53.400;7.608;2022-08-05T11:45:52;101706.97;;;24.17;55.02
73267;BME280;61495;53.400;7.608;2022-08-05T11:48:17;101719.28;;;24.19;53.91
73267;BME280;61495;53.400;7.608;2022-08-05T11:50:43;101712.16;;;24.23;55.63
73267;BME280;61495;53.400;7.608;2022-08-05T11:53:08;101720.06;;;24.45;55.66
73267;BME280;61495;53.400;7.608;2022-08-05T11:55:34;101723.88;;;24.49;54.31
73267;BME280;61495;53.400;7.608;2022-08-05T11:57:59;101716.19;;;24.56;54.18
73267;BME280;61495;53.400;7.608;2022-08-05T12:00:29;101737.25;;;24.66;51.54
73267;BME280;61495;53.400;7.608;2022-08-05T12:02:54;101738.06;;;24.71;53.45
73267;BME280;61495;53.400;7.608;2022-08-05T12:05:25;101744.91;;;24.74;50.13
73267;BME280;61495;53.400;7.608;2022-08-05T12:07:51;101749.56;;;24.94;51.37
73267;BME280;61495;53.400;7.608;2022-08-05T12:10:18;101751.78;;;24.66;47.25
73267;BME280;61495;53.400;7.608;2022-08-05T12:12:45;101747.38;;;24.85;49.71
73267;BME280;61495;53.400;7.608;2022-08-05T12:15:20;101756.91;;;24.98;49.45
73267;BME280;61495;53.400;7.608;2022-08-05T12:17:45;101769.31;;;24.85;47.47
73267;BME280;61495;53.400;7.608;2022-08-05T12:20:11;101776.41;;;24.97;46.79
73267;BME280;61495;53.400;7.608;2022-08-05T12:22:37;101774.66;;;25.26;47.92
73267;BME280;61495;53.400;7.608;2022-08-05T12:25:04;101777.34;;;25.31;46.60
73267;BME280;61495;53.400;7.608;2022-08-05T12:27:30;101787.81;;;25.29;46.73
73267;BME280;61495;53.400;7.608;2022-08-05T12:30:10;101788.78;;;24.94;44.32
73267;BME280;61495;53.400;7.608;2022-08-05T12:32:46;101785.81;;;25.39;44.87
73267;BME280;61495;53.400;7.608;2022-08-05T12:35:15;101780.56;;;25.53;45.52
73267;BME280;61495;53.400;7.608;2022-08-05T12:37:41;101797.88;;;25.43;45.99
73267;BME280;61495;53.400;7.608;2022-08-05T12:40:10;101796.34;;;25.76;46.13
73267;BME280;61495;53.400;7.608;2022-08-05T12:42:35;101793.13;;;25.64;45.94
73267;BME280;61495;53.400;7.608;2022-08-05T12:45:05;101800.25;;;25.65;44.67
73267;BME280;61495;53.400;7.608;2022-08-05T12:47:31;101800.03;;;25.95;44.53
73267;BME280;61495;53.400;7.608;2022-08-05T12:49:57;101809.47;;;25.84;44.63
73267;BME280;61495;53.400;7.608;2022-08-05T12:52:23;101797.03;;;25.97;45.23
73267;BME280;61495;53.400;7.608;2022-08-05T12:54:48;101810.28;;;25.85;45.61
73267;BME280;61495;53.400;7.608;2022-08-05T12:57:16;101818.06;;;26.12;46.62
73267;BME280;61495;53.400;7.608;2022-08-05T12:59:49;101821.09;;;26.15;45.75
73267;BME280;61495;53.400;7.608;2022-08-05T13:02:26;101819.19;;;26.06;45.11
73267;BME280;61495;53.400;7.608;2022-08-05T13:04:53;101830.75;;;26.03;44.57
73267;BME280;61495;53.400;7.608;2022-08-05T13:07:23;101808.50;;;26.04;45.62
73267;BME280;61495;53.400;7.608;2022-08-05T13:09:51;101828.63;;;26.33;45.88
73267;BME280;61495;53.400;7.608;2022-08-05T13:12:19;101828.59;;;26.00;43.67
73267;BME280;61495;53.400;7.608;2022-08-05T13:14:54;101844.63;;;25.82;45.29
73267;BME280;61495;53.400;7.608;2022-08-05T13:17:23;101844.38;;;25.79;44.74
73267;BME280;61495;53.400;7.608;2022-08-05T13:20:00;101833.44;;;25.69;44.11
73267;BME280;61495;53.400;7.608;2022-08-05T13:22:27;101843.50;;;25.88;45.00